Airfield :
LOGIN :

Register | Disclaimer

   EN    FR    IT 

 










Legend :    VFR   Marginal VFR   IFR   Intensive IFR   Very Intensive IFR
Visi :
Ceiling :
>= 8 km
>= 3000ft
5 to 8 km
1000 to 3000 ft
1500m to 5 km
500 to 1000 ft
800 to 1500m
200 to 500 ft
< 800m
< 200 ft
Symbols :   Thunderstorms  Fog  Heavy snow  Heavy precipitations  Wind > 20 kt
SIGMETs :     Misc.  Thunderstorms  Icing  Turbulence  Mountain Waves  Volcanic Ashes






- Airport Elevation : 53 ft
- IATA code : HAM


EDDH - Hamburg

CURRENT METAR :
  • 271220Z 21014KT 9999 SCT018 BKN030 03/M00 Q1009 R88/190195 NOSIG

EXPIRED METARs :
  • 271150Z 21011KT 9999 FEW018 BKN028 03/M00 Q1010 R88/190195 NOSIG
  • 271120Z 21011KT 9999 FEW016 BKN025 03/M01 Q1010 R88/190195 NOSIG
  • 271050Z 21010KT 9999 FEW016 03/M00 Q1010 R88/190195 NOSIG
  • 271020Z 21010KT 180V240 9999 FEW016 03/M01 Q1011 R88/190195 NOSIG
  • 270950Z 21011KT CAVOK 03/M01 Q1011 R88/190195 NOSIG

TAF TAF EDDH
Valid from the 27 at 12:00 until the 28 at 18:00 UTC


271100Z 2712/2818 20007KT 9999 BKN030
BECMG 2715/2717 BKN012
TEMPO 2717/2719 3500 RASN BKN007
PROB30
TEMPO 2717/2719 2000 SN BKN004
BECMG 2719/2721 BKN007
PROB30
TEMPO 2719/2724 2000 -DZ BR BKN004
BECMG 2722/2801 31008KT SCT020
PROB30
TEMPO 2801/2807 BKN010
BECMG 2807/2809 07004KT



MET'MAP, your aeronautical weather chart ! - Copyright ORBIFLY December 2007 - Disclaimer

ORBIFLY MET'MAP TEAM :

Programming & Development : Alexandra Zaïnal
Concept & original design : Baudouin d'Aumeries
Assistance for programming : Marc-Olivier Méhu
Technical & hardware support : Manuel Goepfert

Contact : metmap@orbifly.com




SOURCES & CREDITS :

   NOAA